createdAt,value
2022-09-13T00:00:00.478Z,96687.47
2022-09-13T00:02:27.012Z,96680.47
2022-09-13T00:04:56.390Z,96691.25
2022-09-13T00:07:25.139Z,96695.66
2022-09-13T00:09:51.715Z,96694.91
2022-09-13T00:12:18.306Z,96703.66
2022-09-13T00:14:45.262Z,96694.13
2022-09-13T00:17:11.806Z,96695.63
2022-09-13T00:19:40.649Z,96687.13
2022-09-13T00:22:07.290Z,96690.72
2022-09-13T00:24:37.396Z,96698.28
2022-09-13T00:27:06.446Z,96692.81
2022-09-13T00:29:37.800Z,96690.09
2022-09-13T00:32:07.277Z,96696.47
2022-09-13T00:34:33.938Z,96691.28
2022-09-13T00:37:00.705Z,96695.09
2022-09-13T00:39:27.832Z,96696.72
2022-09-13T00:41:59.213Z,96694.75
2022-09-13T00:44:57.570Z,96705.84
2022-09-13T00:47:41.415Z,96700.50
2022-09-13T00:50:18.032Z,96701.59
2022-09-13T00:52:50.844Z,96701.41
2022-09-13T00:55:26.606Z,96700.97
2022-09-13T00:57:59.045Z,96692.31
2022-09-13T01:00:30.679Z,96687.75
2022-09-13T01:03:09.138Z,96692.78
2022-09-13T01:05:46.507Z,96695.94
2022-09-13T01:08:22.476Z,96694.25
2022-09-13T01:10:53.995Z,96696.94
2022-09-13T01:13:28.897Z,96699.53
2022-09-13T01:15:55.671Z,96692.09
2022-09-13T01:18:24.583Z,96689.84
2022-09-13T01:21:19.184Z,96685.16
2022-09-13T01:24:04.505Z,96690.28
2022-09-13T01:26:46.198Z,96690.72
2022-09-13T01:29:39.000Z,96688.13
2022-09-13T01:32:11.660Z,96704.66
2022-09-13T01:35:23.934Z,96690.50
2022-09-13T01:38:08.877Z,96703.25
2022-09-13T01:40:44.381Z,96699.13
2022-09-13T01:43:43.290Z,96681.25
2022-09-13T01:46:25.001Z,96690.94
2022-09-13T01:49:14.711Z,96700.47
2022-09-13T01:51:54.056Z,96701.09
2022-09-13T01:54:29.334Z,96705.81
2022-09-13T01:57:08.957Z,96713.81
2022-09-13T01:59:56.791Z,96709.56
2022-09-13T02:02:28.722Z,96710.59
2022-09-13T02:05:06.840Z,96721.50
2022-09-13T02:07:40.903Z,96715.41
2022-09-13T02:10:19.953Z,96711.16
2022-09-13T02:12:49.591Z,96714.78
2022-09-13T02:15:20.718Z,96717.38
2022-09-13T02:17:54.990Z,96714.03
2022-09-13T02:20:28.687Z,96698.72
2022-09-13T02:23:03.189Z,96697.19
2022-09-13T02:25:37.262Z,96696.75
2022-09-13T02:28:09.284Z,96702.66
2022-09-13T02:30:41.935Z,96700.81
2022-09-13T02:33:16.535Z,96693.09
2022-09-13T02:36:09.469Z,96687.00
2022-09-13T02:39:11.730Z,96696.38
2022-09-13T02:41:49.374Z,96695.75
2022-09-13T02:44:24.751Z,96702.75
2022-09-13T02:47:06.749Z,96695.88
2022-09-13T02:49:51.628Z,96688.47
2022-09-13T02:52:55.953Z,96689.06
2022-09-13T02:55:33.020Z,96684.47
2022-09-13T02:58:09.399Z,96693.28
2022-09-13T03:00:39.142Z,96697.22
2022-09-13T03:03:12.444Z,96703.94
2022-09-13T03:05:41.334Z,96700.13
2022-09-13T03:08:13.117Z,96696.53
2022-09-13T03:10:52.174Z,96698.00
2022-09-13T03:13:42.628Z,96698.00
2022-09-13T03:16:15.684Z,96689.66
2022-09-13T03:19:22.137Z,96698.16
2022-09-13T03:22:07.437Z,96696.00
2022-09-13T03:24:40.228Z,96697.03
2022-09-13T03:27:25.419Z,96704.31
2022-09-13T03:30:14.165Z,96699.63
2022-09-13T03:32:55.268Z,96701.44
2022-09-13T03:35:32.646Z,96704.38
2022-09-13T03:38:17.604Z,96700.28
2022-09-13T03:40:49.218Z,96703.97
2022-09-13T03:43:35.879Z,96696.06
2022-09-13T03:46:11.363Z,96696.41
2022-09-13T03:48:40.852Z,96709.66
2022-09-13T03:51:08.612Z,96703.78
2022-09-13T03:53:42.979Z,96714.84
2022-09-13T03:56:20.366Z,96720.31
2022-09-13T03:58:48.573Z,96716.81
2022-09-13T04:01:21.998Z,96716.72
2022-09-13T04:03:51.413Z,96706.16
2022-09-13T04:06:20.053Z,96703.88
2022-09-13T04:08:51.707Z,96697.06
2022-09-13T04:11:21.566Z,96699.38
2022-09-13T04:13:48.241Z,96706.34
2022-09-13T04:16:17.254Z,96701.00
2022-09-13T04:18:46.471Z,96706.91
2022-09-13T04:21:16.612Z,96711.78
2022-09-13T04:23:45.451Z,96705.91
2022-09-13T04:26:12.020Z,96705.47
2022-09-13T04:28:38.563Z,96705.69
2022-09-13T04:31:07.476Z,96703.97
2022-09-13T04:33:37.323Z,96704.72
2022-09-13T04:36:04.133Z,96709.41
2022-09-13T04:38:32.003Z,96704.25
2022-09-13T04:41:00.960Z,96714.13
2022-09-13T04:43:29.875Z,96709.66
2022-09-13T04:46:02.727Z,96712.56
2022-09-13T04:48:29.619Z,96716.06
2022-09-13T04:51:04.790Z,96728.03
2022-09-13T04:53:32.254Z,96732.50
2022-09-13T04:56:02.621Z,96736.00
2022-09-13T04:58:29.687Z,96734.47
2022-09-13T05:01:04.205Z,96737.28
2022-09-13T05:03:36.421Z,96730.06
2022-09-13T05:06:08.776Z,96724.50
2022-09-13T05:08:36.207Z,96729.19
2022-09-13T05:11:03.991Z,96716.97
2022-09-13T05:13:31.492Z,96725.31
2022-09-13T05:16:09.447Z,96726.06
2022-09-13T05:18:38.377Z,96727.34
2022-09-13T05:21:10.068Z,96724.16
2022-09-13T05:23:36.723Z,96704.19
2022-09-13T05:26:05.394Z,96722.66
2022-09-13T05:28:36.057Z,96717.88
2022-09-13T05:31:04.112Z,96722.97
2022-09-13T05:33:33.471Z,96713.06
2022-09-13T05:36:00.186Z,96705.78
2022-09-13T05:38:29.372Z,96713.13
2022-09-13T05:40:59.730Z,96710.72
2022-09-13T05:43:28.993Z,96706.22
2022-09-13T05:46:07.316Z,96700.44
2022-09-13T05:48:35.806Z,96699.53
2022-09-13T05:51:06.818Z,96699.72
2022-09-13T05:53:38.093Z,96715.09
2022-09-13T05:56:05.134Z,96693.53
2022-09-13T05:58:31.715Z,96699.38
2022-09-13T06:00:58.395Z,96706.38
2022-09-13T06:03:25.409Z,96709.16
2022-09-13T06:05:55.730Z,96696.69
2022-09-13T06:08:23.896Z,96699.31
2022-09-13T06:11:00.847Z,96694.56
2022-09-13T06:13:28.463Z,96690.81
2022-09-13T06:15:56.540Z,96692.47
2022-09-13T06:18:24.957Z,96710.59
2022-09-13T06:20:52.168Z,96712.75
2022-09-13T06:23:23.582Z,96717.00
2022-09-13T06:25:50.141Z,96703.31
2022-09-13T06:28:17.015Z,96707.75
2022-09-13T06:30:45.854Z,96707.00
2022-09-13T06:33:12.417Z,96698.66
2022-09-13T06:35:38.933Z,96682.72
2022-09-13T06:38:12.952Z,96696.25
2022-09-13T06:40:39.499Z,96688.25
2022-09-13T06:43:09.071Z,96694.16
2022-09-13T06:45:42.252Z,96683.22
2022-09-13T06:48:08.811Z,96678.69
2022-09-13T06:50:35.481Z,96667.91
2022-09-13T06:53:02.125Z,96663.53
2022-09-13T06:55:32.030Z,96670.34
2022-09-13T06:58:01.225Z,96672.78
2022-09-13T07:00:27.748Z,96657.44
2022-09-13T07:02:58.818Z,96672.59
2022-09-13T07:05:27.705Z,96667.69
2022-09-13T07:07:56.557Z,96664.75
2022-09-13T07:10:25.655Z,96659.78
2022-09-13T07:12:52.178Z,96652.09
2022-09-13T07:15:18.708Z,96657.59
2022-09-13T07:17:47.798Z,96656.50
2022-09-13T07:20:14.332Z,96656.38
2022-09-13T07:22:40.823Z,96654.13
2022-09-13T07:25:08.226Z,96642.66
2022-09-13T07:27:36.975Z,96649.78
2022-09-13T07:30:04.058Z,96649.94
2022-09-13T07:32:32.905Z,96648.44
2022-09-13T07:34:59.511Z,96656.59
2022-09-13T07:37:27.173Z,96659.09
2022-09-13T07:39:53.731Z,96660.09
2022-09-13T07:42:22.922Z,96656.13
2022-09-13T07:44:49.506Z,96654.22
2022-09-13T07:47:16.248Z,96658.28
2022-09-13T07:49:42.746Z,96653.72
2022-09-13T07:52:14.054Z,96660.56
2022-09-13T07:54:40.571Z,96646.03
2022-09-13T07:57:10.517Z,96653.16
2022-09-13T07:59:38.853Z,96660.50
2022-09-13T08:02:05.569Z,96654.59
2022-09-13T08:04:36.177Z,96649.69
2022-09-13T08:07:05.484Z,96644.69
2022-09-13T08:09:34.312Z,96632.63
2022-09-13T08:12:05.603Z,96638.34
2022-09-13T08:14:34.587Z,96638.84
2022-09-13T08:17:04.409Z,96636.06
2022-09-13T08:19:33.585Z,96653.53
2022-09-13T08:22:04.995Z,96654.50
2022-09-13T08:24:31.514Z,96652.13
2022-09-13T08:27:03.169Z,96637.91
2022-09-13T08:29:32.025Z,96630.28
2022-09-13T08:32:01.049Z,96645.09
2022-09-13T08:34:27.645Z,96647.19
2022-09-13T08:36:56.727Z,96651.69
2022-09-13T08:39:23.245Z,96649.13
2022-09-13T08:42:03.178Z,96641.69
2022-09-13T08:44:45.359Z,96649.88
2022-09-13T08:47:27.254Z,96643.16
2022-09-13T08:50:28.027Z,96632.44
2022-09-13T08:53:07.400Z,96641.19
2022-09-13T08:55:49.381Z,96628.44
2022-09-13T08:58:33.392Z,96639.41
2022-09-13T09:01:29.042Z,96638.88
2022-09-13T09:04:20.615Z,96642.91
2022-09-13T09:06:49.707Z,96644.19
2022-09-13T09:09:20.564Z,96641.22
2022-09-13T09:12:00.109Z,96640.03
2022-09-13T09:14:35.966Z,96639.53
2022-09-13T09:17:06.882Z,96642.84
2022-09-13T09:19:38.244Z,96632.81
2022-09-13T09:22:11.919Z,96637.16
2022-09-13T09:24:40.355Z,96628.63
2022-09-13T09:27:17.236Z,96632.06
2022-09-13T09:29:46.313Z,96637.63
2022-09-13T09:32:36.202Z,96634.94
2022-09-13T09:35:31.363Z,96628.66
2022-09-13T09:38:10.475Z,96631.72
2022-09-13T09:40:39.871Z,96618.69
2022-09-13T09:43:20.227Z,96609.13
2022-09-13T09:45:50.933Z,96608.41
2022-09-13T09:48:25.253Z,96602.38
2022-09-13T09:50:55.503Z,96600.09
2022-09-13T09:53:32.534Z,96604.38
2022-09-13T09:56:31.288Z,96592.06
2022-09-13T09:59:00.027Z,96586.28
2022-09-13T10:01:30.464Z,96592.81
2022-09-13T10:04:06.189Z,96588.81
2022-09-13T10:06:32.904Z,96595.38
2022-09-13T10:09:17.999Z,96595.81
2022-09-13T10:11:54.579Z,96583.03
2022-09-13T10:14:45.854Z,96591.06
2022-09-13T10:17:15.211Z,96587.06
2022-09-13T10:19:53.037Z,96590.81
2022-09-13T10:22:20.029Z,96585.28
2022-09-13T10:24:50.254Z,96578.22
2022-09-13T10:27:23.209Z,96570.97
2022-09-13T10:29:56.805Z,96562.41
2022-09-13T10:32:23.795Z,96558.09
2022-09-13T10:34:53.393Z,96567.81
2022-09-13T10:37:28.973Z,96541.06
2022-09-13T10:39:58.519Z,96553.22
2022-09-13T10:42:28.205Z,96551.56
2022-09-13T10:45:08.422Z,96549.16
2022-09-13T10:47:44.908Z,96544.09
2022-09-13T10:50:24.983Z,96537.06
2022-09-13T10:52:56.531Z,96532.78
2022-09-13T10:55:25.291Z,96537.16
2022-09-13T10:58:07.666Z,96528.75
2022-09-13T11:00:52.247Z,96520.25
2022-09-13T11:03:37.033Z,96513.38
2022-09-13T11:06:06.692Z,96516.06
2022-09-13T11:08:47.510Z,96519.38
2022-09-13T11:11:26.489Z,96514.44
2022-09-13T11:14:02.323Z,96509.66
2022-09-13T11:16:48.216Z,96505.81
2022-09-13T11:19:27.790Z,96502.56
2022-09-13T11:22:25.396Z,96496.34
2022-09-13T11:25:24.364Z,96492.31
2022-09-13T11:28:27.718Z,96489.00
2022-09-13T11:31:12.798Z,96488.00
2022-09-13T11:33:42.347Z,96487.03
2022-09-13T11:36:36.122Z,96478.94
2022-09-13T11:39:13.603Z,96471.91
2022-09-13T11:42:01.405Z,96468.53
2022-09-13T11:44:49.390Z,96466.34
2022-09-13T11:47:19.080Z,96464.09
2022-09-13T11:50:03.978Z,96464.34
2022-09-13T11:52:36.568Z,96464.34
2022-09-13T11:55:28.911Z,96459.34
2022-09-13T11:58:01.334Z,96454.84
2022-09-13T12:00:43.991Z,96456.34
2022-09-13T12:03:10.595Z,96448.41
2022-09-13T12:05:57.589Z,96441.66
2022-09-13T12:08:42.664Z,96438.91
2022-09-13T12:11:16.244Z,96442.03
2022-09-13T12:13:56.325Z,96425.47
2022-09-13T12:16:35.919Z,96436.78
2022-09-13T12:19:16.626Z,96435.00
2022-09-13T12:21:45.853Z,96436.63
2022-09-13T12:24:38.328Z,96433.34
2022-09-13T12:27:21.947Z,96425.75
2022-09-13T12:30:16.544Z,96429.56
2022-09-13T12:32:45.291Z,96422.91
2022-09-13T12:35:38.603Z,96428.13
2022-09-13T12:38:43.811Z,96428.66
2022-09-13T12:41:32.560Z,96431.84
2022-09-13T12:44:31.683Z,96431.34
2022-09-13T12:47:18.796Z,96427.81
2022-09-13T12:49:53.173Z,96429.78
2022-09-13T12:52:41.815Z,96421.88
2022-09-13T12:55:42.668Z,96413.78
2022-09-13T12:58:25.430Z,96421.19
2022-09-13T13:01:00.315Z,96413.31
2022-09-13T13:03:33.971Z,96414.59
2022-09-13T13:06:15.423Z,96418.88
2022-09-13T13:08:53.238Z,96413.84
2022-09-13T13:11:27.069Z,96409.78
2022-09-13T13:14:09.534Z,96408.38
2022-09-13T13:16:48.281Z,96388.78
2022-09-13T13:19:32.552Z,96396.31
2022-09-13T13:22:36.672Z,96400.00
2022-09-13T13:25:39.075Z,96403.97
2022-09-13T13:28:43.270Z,96395.28
2022-09-13T13:31:24.708Z,96390.75
2022-09-13T13:33:56.051Z,96393.69
2022-09-13T13:36:44.015Z,96386.19
2022-09-13T13:39:34.284Z,96395.03
2022-09-13T13:42:27.815Z,96388.69
2022-09-13T13:44:54.691Z,96390.31
2022-09-13T13:47:21.282Z,96384.19
2022-09-13T13:49:54.617Z,96374.69
2022-09-13T13:52:23.661Z,96370.50
2022-09-13T13:55:23.727Z,96365.38
2022-09-13T13:58:04.889Z,96361.09
2022-09-13T14:00:36.894Z,96370.41
2022-09-13T14:03:10.294Z,96377.03
2022-09-13T14:06:06.033Z,96370.06
2022-09-13T14:08:57.505Z,96352.13
2022-09-13T14:11:47.836Z,96342.38
2022-09-13T14:14:51.951Z,96349.19
2022-09-13T14:17:33.764Z,96344.09
2022-09-13T14:20:14.656Z,96343.66
2022-09-13T14:22:43.816Z,96343.00
2022-09-13T14:25:19.388Z,96350.59
2022-09-13T14:27:49.281Z,96346.44
2022-09-13T14:30:32.572Z,96338.31
2022-09-13T14:33:01.741Z,96343.88
2022-09-13T14:35:31.671Z,96338.84
2022-09-13T14:38:33.554Z,96345.16
2022-09-13T14:41:15.347Z,96344.41
2022-09-13T14:43:43.764Z,96349.44
2022-09-13T14:46:26.173Z,96357.25
2022-09-13T14:49:02.844Z,96350.63
2022-09-13T14:52:13.193Z,96348.88
2022-09-13T14:54:44.705Z,96341.53
2022-09-13T14:57:25.346Z,96340.03
2022-09-13T14:59:56.109Z,96347.81
2022-09-13T15:02:37.565Z,96337.22
2022-09-13T15:05:09.157Z,96344.28
2022-09-13T15:07:38.320Z,96339.38
2022-09-13T15:10:12.499Z,96327.06
2022-09-13T15:12:53.763Z,96336.16
2022-09-13T15:15:20.358Z,96340.66
2022-09-13T15:18:03.827Z,96341.16
2022-09-13T15:20:45.791Z,96341.41
2022-09-13T15:23:18.285Z,96335.19
2022-09-13T15:25:52.431Z,96339.22
2022-09-13T15:28:28.437Z,96331.75
2022-09-13T15:30:57.029Z,96329.38
2022-09-13T15:33:29.998Z,96319.09
2022-09-13T15:36:19.189Z,96320.91
2022-09-13T15:39:02.198Z,96328.06
2022-09-13T15:41:41.105Z,96326.03
2022-09-13T15:44:09.755Z,96327.06
2022-09-13T15:46:47.991Z,96327.19
2022-09-13T15:49:19.857Z,96327.19
2022-09-13T15:51:55.681Z,96327.78
2022-09-13T15:54:26.383Z,96307.34
2022-09-13T15:56:53.421Z,96313.00
2022-09-13T15:59:21.632Z,96312.56
2022-09-13T16:01:50.806Z,96308.38
2022-09-13T16:04:21.147Z,96301.38
2022-09-13T16:06:48.059Z,96300.88
2022-09-13T16:09:21.650Z,96299.06
2022-09-13T16:11:52.061Z,96296.28
2022-09-13T16:14:21.969Z,96290.28
2022-09-13T16:16:49.190Z,96285.09
2022-09-13T16:19:17.887Z,96289.69
2022-09-13T16:21:47.425Z,96283.34
2022-09-13T16:24:14.553Z,96275.31
2022-09-13T16:26:42.247Z,96291.94
2022-09-13T16:29:12.671Z,96286.03
2022-09-13T16:31:42.538Z,96285.34
2022-09-13T16:34:09.434Z,96289.19
2022-09-13T16:36:38.228Z,96287.97
2022-09-13T16:39:05.133Z,96303.94
2022-09-13T16:41:35.082Z,96294.03
2022-09-13T16:44:05.150Z,96295.84
2022-09-13T16:46:32.099Z,96296.81
2022-09-13T16:49:01.529Z,96295.34
2022-09-13T16:51:30.302Z,96284.88
2022-09-13T16:53:59.482Z,96290.44
2022-09-13T16:56:28.272Z,96279.44
2022-09-13T16:58:57.033Z,96282.03
2022-09-13T17:01:27.022Z,96279.78
2022-09-13T17:03:55.154Z,96278.63
2022-09-13T17:06:23.611Z,96281.16
2022-09-13T17:08:56.702Z,96280.69
2022-09-13T17:11:29.631Z,96281.72
2022-09-13T17:13:59.897Z,96281.81
2022-09-13T17:16:32.066Z,96283.09
2022-09-13T17:19:04.896Z,96290.66
2022-09-13T17:21:33.757Z,96287.72
2022-09-13T17:24:01.176Z,96293.75
2022-09-13T17:26:27.803Z,96289.78
2022-09-13T17:28:54.307Z,96290.03
2022-09-13T17:31:23.544Z,96292.56
2022-09-13T17:33:53.290Z,96292.88
2022-09-13T17:36:20.787Z,96298.16
2022-09-13T17:38:47.372Z,96295.41
2022-09-13T17:41:20.979Z,96304.50
2022-09-13T17:43:49.974Z,96297.56
2022-09-13T17:46:22.425Z,96296.84
2022-09-13T17:48:53.634Z,96292.06
2022-09-13T17:51:22.829Z,96300.91
2022-09-13T17:53:55.040Z,96295.91
2022-09-13T17:56:25.713Z,96291.41
2022-09-13T17:58:52.441Z,96288.41
2022-09-13T18:01:19.018Z,96284.97
2022-09-13T18:03:48.641Z,96289.25
2022-09-13T18:06:15.541Z,96287.53
2022-09-13T18:08:43.342Z,96292.56
2022-09-13T18:11:22.329Z,96282.06
2022-09-13T18:13:51.973Z,96290.84
2022-09-13T18:16:27.536Z,96287.63
2022-09-13T18:18:54.265Z,96282.59
2022-09-13T18:21:25.652Z,96284.34
2022-09-13T18:23:58.446Z,96290.88
2022-09-13T18:26:26.748Z,96292.63
2022-09-13T18:29:09.815Z,96288.97
2022-09-13T18:31:39.332Z,96304.53
2022-09-13T18:34:09.716Z,96304.00
2022-09-13T18:36:39.617Z,96291.72
2022-09-13T18:39:15.142Z,96300.25
2022-09-13T18:41:41.784Z,96298.00
2022-09-13T18:44:10.704Z,96303.53
2022-09-13T18:46:37.830Z,96305.53
2022-09-13T18:49:05.541Z,96302.50
2022-09-13T18:51:36.051Z,96300.50
2022-09-13T18:54:03.630Z,96307.53
2022-09-13T18:56:30.517Z,96307.25
2022-09-13T18:59:05.217Z,96304.78
2022-09-13T19:01:34.409Z,96310.78
2022-09-13T19:04:11.638Z,96307.25
2022-09-13T19:06:41.991Z,96315.31
2022-09-13T19:09:09.300Z,96316.78
2022-09-13T19:11:48.927Z,96314.56
2022-09-13T19:14:29.568Z,96311.78
2022-09-13T19:17:00.528Z,96315.06
2022-09-13T19:19:27.080Z,96310.53
2022-09-13T19:21:53.651Z,96312.53
2022-09-13T19:24:22.949Z,96309.53
2022-09-13T19:26:51.657Z,96315.28
2022-09-13T19:29:22.849Z,96333.84
2022-09-13T19:31:53.282Z,96329.31
2022-09-13T19:34:21.987Z,96341.88
2022-09-13T19:36:57.433Z,96339.88
2022-09-13T19:39:31.811Z,96329.56
2022-09-13T19:42:00.438Z,96327.84
2022-09-13T19:44:29.705Z,96325.31
2022-09-13T19:47:23.759Z,96323.56
2022-09-13T19:49:45.499Z,96311.50
2022-09-13T19:52:12.074Z,96321.78
2022-09-13T19:54:38.980Z,96319.78
2022-09-13T19:57:07.680Z,96316.75
2022-09-13T19:59:34.393Z,96318.75
2022-09-13T20:02:00.939Z,96323.53
2022-09-13T20:04:30.433Z,96319.00
2022-09-13T20:06:59.528Z,96327.53
2022-09-13T20:09:26.234Z,96334.03
2022-09-13T20:11:55.231Z,96323.50
2022-09-13T20:14:22.751Z,96332.53
2022-09-13T20:16:49.380Z,96327.00
2022-09-13T20:19:40.143Z,96330.25
2022-09-13T20:22:08.515Z,96318.50
2022-09-13T20:24:35.636Z,96313.22
2022-09-13T20:27:02.228Z,96331.28
2022-09-13T20:29:28.813Z,96338.28
2022-09-13T20:31:59.490Z,96341.78
2022-09-13T20:34:28.436Z,96339.53
2022-09-13T20:36:54.981Z,96344.31
2022-09-13T20:39:21.533Z,96348.56
2022-09-13T20:41:50.562Z,96349.81
2022-09-13T20:44:19.570Z,96358.31
2022-09-13T20:46:46.185Z,96346.81
2022-09-13T20:49:12.821Z,96353.56
2022-09-13T20:51:39.570Z,96355.56
2022-09-13T20:54:08.887Z,96360.84
2022-09-13T20:56:37.948Z,96353.81
2022-09-13T20:59:04.986Z,96355.56
2022-09-13T21:01:35.195Z,96350.78
2022-09-13T21:04:02.920Z,96341.53
2022-09-13T21:06:36.264Z,96324.50
2022-09-13T21:09:02.819Z,96323.50
2022-09-13T21:11:33.714Z,96332.78
2022-09-13T21:14:08.547Z,96332.78
2022-09-13T21:16:42.926Z,96336.53
2022-09-13T21:19:12.252Z,96332.75
2022-09-13T21:21:42.439Z,96323.25
2022-09-13T21:24:12.553Z,96336.03
2022-09-13T21:26:42.355Z,96333.78
2022-09-13T21:29:10.071Z,96331.47
2022-09-13T21:31:40.151Z,96324.72
2022-09-13T21:34:21.109Z,96324.72
2022-09-13T21:36:50.971Z,96318.47
2022-09-13T21:39:18.729Z,96319.47
2022-09-13T21:41:45.450Z,96309.97
2022-09-13T21:44:12.049Z,96305.94
2022-09-13T21:46:39.921Z,96311.44
2022-09-13T21:49:09.119Z,96312.69
2022-09-13T21:51:47.667Z,96300.63
2022-09-13T21:54:19.112Z,96296.41
2022-09-13T21:56:53.514Z,96310.16
2022-09-13T21:59:21.717Z,96305.66
2022-09-13T22:01:53.285Z,96310.66
2022-09-13T22:04:24.221Z,96296.13
2022-09-13T22:06:53.434Z,96289.88
2022-09-13T22:09:22.456Z,96281.34
2022-09-13T22:11:49.697Z,96275.13
2022-09-13T22:14:21.969Z,96279.84
2022-09-13T22:16:49.370Z,96288.34
2022-09-13T22:19:25.651Z,96295.63
2022-09-13T22:22:00.222Z,96293.63
2022-09-13T22:24:29.483Z,96287.84
2022-09-13T22:26:59.120Z,96282.81
2022-09-13T22:29:26.388Z,96281.81
2022-09-13T22:31:53.378Z,96284.56
2022-09-13T22:34:25.272Z,96269.78
2022-09-13T22:36:55.773Z,96267.78
2022-09-13T22:39:24.692Z,96274.78
2022-09-13T22:41:51.791Z,96281.78
2022-09-13T22:44:23.224Z,96280.25
2022-09-13T22:46:52.510Z,96283.03
2022-09-13T22:49:22.095Z,96281.28
2022-09-13T22:51:48.787Z,96292.06
2022-09-13T22:54:18.873Z,96298.81
2022-09-13T22:56:48.721Z,96296.06
2022-09-13T22:59:18.462Z,96285.53
2022-09-13T23:01:45.378Z,96290.56
2022-09-13T23:04:12.446Z,96287.53
2022-09-13T23:06:39.671Z,96285.81
2022-09-13T23:09:10.789Z,96288.56
2022-09-13T23:11:41.813Z,96280.78
2022-09-13T23:14:13.693Z,96272.28
2022-09-13T23:16:45.578Z,96299.56
2022-09-13T23:19:15.173Z,96285.81
2022-09-13T23:21:42.880Z,96285.06
2022-09-13T23:24:17.764Z,96279.28
2022-09-13T23:26:45.017Z,96272.28
2022-09-13T23:29:20.223Z,96273.69
2022-09-13T23:31:48.025Z,96270.69
2022-09-13T23:34:15.422Z,96280.97
2022-09-13T23:36:46.202Z,96280.47
2022-09-13T23:39:17.968Z,96267.44
2022-09-13T23:41:46.448Z,96260.94
2022-09-13T23:44:13.566Z,96253.94
2022-09-13T23:46:42.865Z,96258.91
2022-09-13T23:49:09.526Z,96246.13
2022-09-13T23:51:36.664Z,96247.16
2022-09-13T23:54:04.144Z,96231.34
2022-09-13T23:56:32.472Z,96237.88
2022-09-13T23:59:01.085Z,96241.66
